Fairfax, Vermont
Current Conditions -  °F | °C
As of 4:54 AM on Monday 26 Jan 2015 (Local Time) from KBTV Reporting Station
Clear Clear  
Wind Chill: -19°   Ceiling: Unl
Heat Index: -19°   Visibility: 10mi
Dew Point: -22°   Wind: 0mph
Humidity: 76%   Direction: NA
Pressure: 30.15"   Gusts: NA
Location:  44.67°N, 73.01°W
Report Text: KBTV 260954Z AUTO 00000KT 10SM CLR M19/M22 A3015 RMK AO2 SLP217 T11891222
Loading
Personal Weather Stations






























Interactive Weather Map New forecast layout! Learn more

10-Day Weather Forecast

Advertisements
Track Severe Weather on mobile